Rossville, Illinois
Current Conditions -  °F | °C
As of 9:35 AM on Thursday 30 Oct 2014 (Local Time) from KDNV Reporting Station
Clear Clear  
Wind Chill: 42°   Ceiling: Unl
Heat Index: 42°   Visibility: 10mi
Dew Point: 37°   Wind: 3mph
Humidity: 82%   Direction: 230°SW
Pressure: 30.15"   Gusts: NA
Location:  40.38°N, 87.67°W
Report Text: KDNV 301435Z AUTO 23003KT 10SM CLR 06/03 A3015 RMK AO2 T00580029
Loading
Personal Weather Stations






























Interactive Weather Map
Tropical Storm Tracking
New forecast layout! Learn more

10-Day Weather Forecast

Advertisements
Track Severe Weather on mobile